Time;durP1;ratioP1;P1;durP2;ratioP2;P2;SDS_P1;SDS_P2;PMS_P1;PMS_P2;Temp;Humidity;BMP_temperature;BMP_pressure;BME280_temperature;BME280_humidity;BME280_pressure;Samples;Min_cycle;Max_cycle;Signal;HPM_P1;HPM_P2
2023/04/03 00:01:06;;;;;;;5.43;4.10;;;19.80;63.30;;;;;;4973745;28;89112;-90
2023/04/03 00:03:32;;;;;;;6.55;5.20;;;19.80;62.50;;;;;;4976406;28;90710;-90
2023/04/03 00:05:57;;;;;;;8.00;5.50;;;19.90;62.60;;;;;;4983291;28;91530;-90
2023/04/03 00:08:23;;;;;;;5.40;4.90;;;19.80;62.30;;;;;;4998358;28;88261;-89
2023/04/03 00:10:49;;;;;;;6.55;5.10;;;19.80;62.70;;;;;;4983387;28;87271;-89
2023/04/03 00:13:15;;;;;;;6.85;4.70;;;19.80;62.60;;;;;;4983683;28;88153;-90
2023/04/03 00:15:41;;;;;;;7.35;4.35;;;19.80;62.50;;;;;;4982396;28;88968;-90
2023/04/03 00:18:17;;;;;;;5.82;4.47;;;19.80;62.50;;;;;;5000359;28;87493;-90
2023/04/03 00:20:43;;;;;;;5.97;4.35;;;19.80;62.60;;;;;;4998012;28;90333;-90
2023/04/03 00:23:09;;;;;;;6.45;5.05;;;19.70;62.40;;;;;;4998976;28;90641;-90
2023/04/03 00:25:35;;;;;;;7.35;5.18;;;19.70;62.70;;;;;;4982739;28;90213;-90
2023/04/03 00:28:01;;;;;;;6.95;4.88;;;19.70;62.30;;;;;;4999491;28;87412;-90
2023/04/03 00:30:27;;;;;;;7.50;4.45;;;19.70;62.40;;;;;;4998180;28;90571;-90
2023/04/03 00:32:53;;;;;;;5.00;4.55;;;19.70;62.60;;;;;;5000233;28;92530;-91
2023/04/03 00:35:20;;;;;;;6.22;4.63;;;19.70;62.30;;;;;;4982278;28;91268;-91
2023/04/03 00:37:46;;;;;;;5.55;4.10;;;19.70;62.30;;;;;;4998918;28;87081;-90
2023/04/03 00:40:14;;;;;;;5.53;4.20;;;19.70;62.30;;;;;;4998566;28;89792;-90
2023/04/03 00:42:42;;;;;;;5.55;4.43;;;19.60;62.40;;;;;;4997699;28;92177;-90
2023/04/03 00:45:11;;;;;;;6.15;4.22;;;19.60;62.30;;;;;;5000179;28;91466;-90
2023/04/03 00:47:38;;;;;;;5.87;4.83;;;19.60;62.30;;;;;;4983732;28;87200;-89
2023/04/03 00:50:05;;;;;;;5.85;4.95;;;19.60;62.30;;;;;;4998244;28;88462;-90
2023/04/03 00:52:31;;;;;;;4.97;4.47;;;19.60;62.30;;;;;;4977171;28;88712;-89
2023/04/03 00:55:10;;;;;;;5.32;4.47;;;19.60;62.50;;;;;;4973566;28;89106;-89
2023/04/03 00:57:35;;;;;;;5.47;4.30;;;19.60;62.60;;;;;;4971036;28;89711;-90
2023/04/03 01:00:12;;;;;;;4.90;4.40;;;19.50;62.30;;;;;;4999306;28;89416;-91
2023/04/03 01:02:40;;;;;;;4.38;3.97;;;19.50;62.30;;;;;;4998287;28;91011;-90
2023/04/03 01:05:06;;;;;;;5.47;4.57;;;19.50;62.30;;;;;;4998747;28;91325;-90
2023/04/03 01:07:33;;;;;;;5.07;4.53;;;19.50;62.30;;;;;;4991181;28;86925;-89
2023/04/03 01:10:03;;;;;;;5.00;4.28;;;19.50;61.90;;;;;;4983131;28;87241;-90
2023/04/03 01:12:38;;;;;;;5.85;4.40;;;19.50;62.10;;;;;;4990132;28;90632;-90
2023/04/03 01:15:28;;;;;;;4.70;4.20;;;19.50;62.10;;;;;;5000187;28;90504;-90
2023/04/03 01:17:56;;;;;;;4.95;4.35;;;19.50;62.20;;;;;;4998534;28;87290;-90
2023/04/03 01:20:25;;;;;;;5.13;4.45;;;19.50;62.20;;;;;;4983615;28;87562;-90
2023/04/03 01:23:08;;;;;;;5.30;4.68;;;19.50;62.00;;;;;;4976883;28;90487;-89
2023/04/03 01:25:36;;;;;;;6.20;4.28;;;19.50;62.10;;;;;;4961778;28;90739;-91
2023/04/03 01:28:03;;;;;;;4.20;3.80;;;19.50;62.20;;;;;;4954783;28;87489;-90
2023/04/03 01:30:46;;;;;;;;;;;;;;;;;;;;;
2023/04/03 01:33:11;;;;;;;4.30;3.90;;;19.40;62.00;;;;;;4978248;28;89081;-90
2023/04/03 01:35:38;;;;;;;4.30;3.90;;;19.50;62.10;;;;;;4960914;28;91093;-90
2023/04/03 01:38:03;;;;;;;4.70;4.15;;;19.40;61.80;;;;;;4954891;28;87572;-90
2023/04/03 01:43:51;;;;;;;4.88;4.32;;;19.40;61.90;;;;;;4976569;28;87242;-89
2023/04/03 01:46:18;;;;;;;5.20;4.25;;;19.40;61.80;;;;;;4977384;28;88481;-90
2023/04/03 01:48:44;;;;;;;5.05;4.55;;;19.40;61.60;;;;;;4964782;28;88054;-89
2023/04/03 01:51:09;;;;;;;6.47;4.05;;;19.40;61.80;;;;;;4972732;28;91128;-91
2023/04/03 01:53:35;;;;;;;4.22;3.83;;;19.40;61.90;;;;;;4979931;28;88521;-90
2023/04/03 01:59:25;;;;;;;5.03;4.45;;;19.30;62.00;;;;;;4982763;28;86849;-91
2023/04/03 02:01:51;;;;;;;4.67;4.10;;;19.40;62.00;;;;;;4972792;28;89287;-91
2023/04/03 02:04:17;;;;;;;6.38;4.25;;;19.30;61.90;;;;;;4980643;28;90094;-89
2023/04/03 02:06:42;;;;;;;5.43;4.00;;;19.30;61.90;;;;;;4980789;28;89713;-90
2023/04/03 02:09:08;;;;;;;5.07;3.90;;;19.30;61.90;;;;;;4998553;28;87266;-90
2023/04/03 02:11:34;;;;;;;4.70;4.18;;;19.30;62.00;;;;;;4981108;28;89890;-90
2023/04/03 02:13:59;;;;;;;4.38;3.70;;;19.30;62.10;;;;;;4980392;28;91750;-91
2023/04/03 02:16:25;;;;;;;4.78;3.95;;;19.30;61.90;;;;;;4980409;28;91849;-89
2023/04/03 02:18:51;;;;;;;4.85;4.00;;;19.30;61.80;;;;;;4979934;28;87308;-90
2023/04/03 02:21:16;;;;;;;5.35;3.70;;;19.30;61.70;;;;;;4977820;28;89268;-90
2023/04/03 02:23:42;;;;;;;4.63;3.65;;;19.30;61.70;;;;;;4977066;28;89277;-90
2023/04/03 02:26:13;;;;;;;6.72;4.22;;;19.30;61.60;;;;;;4977663;28;91165;-90
2023/04/03 02:28:40;;;;;;;3.88;3.45;;;19.30;61.60;;;;;;4979724;28;87550;-90
2023/04/03 02:31:07;;;;;;;4.53;3.88;;;19.20;61.60;;;;;;4997389;28;89211;-90
2023/04/03 02:33:34;;;;;;;4.45;3.92;;;19.20;61.50;;;;;;4996975;28;91705;-90
2023/04/03 02:36:09;;;;;;;4.30;3.90;;;19.20;61.50;;;;;;4998152;28;90530;-90
2023/04/03 02:42:01;;;;;;;4.57;3.83;;;19.30;61.50;;;;;;4982364;28;89341;-90
2023/04/03 02:44:26;;;;;;;5.43;3.85;;;19.20;61.40;;;;;;4980193;28;91818;-90
2023/04/03 02:46:52;;;;;;;3.78;3.47;;;19.20;61.70;;;;;;4979569;28;90303;-90
2023/04/03 02:49:18;;;;;;;4.35;3.95;;;19.20;61.70;;;;;;4980508;28;86868;-90
2023/04/03 02:51:43;;;;;;;3.92;3.47;;;19.20;61.40;;;;;;4980565;28;90375;-90
2023/04/03 02:54:09;;;;;;;4.40;3.50;;;19.20;61.50;;;;;;4997692;28;90241;-91
2023/04/03 02:56:35;;;;;;;4.00;3.50;;;19.10;61.50;;;;;;4981428;28;86345;-90
2023/04/03 02:59:01;;;;;;;4.45;3.60;;;19.10;61.40;;;;;;4965492;28;87420;-91
2023/04/03 03:01:31;;;;;;;4.18;3.78;;;19.10;61.60;;;;;;4975747;28;91034;-90
2023/04/03 03:03:57;;;;;;;5.03;4.10;;;19.10;61.50;;;;;;4975657;28;93806;-90
2023/04/03 03:06:23;;;;;;;4.35;3.83;;;19.10;61.70;;;;;;4978509;28;91935;-90
2023/04/03 03:08:49;;;;;;;4.93;3.80;;;19.10;61.40;;;;;;5000816;28;87317;-89
2023/04/03 03:11:15;;;;;;;3.90;3.50;;;19.10;61.20;;;;;;4983173;28;89121;-91
2023/04/03 03:13:40;;;;;;;3.95;3.55;;;19.10;61.30;;;;;;4999897;28;89459;-91
2023/04/03 03:16:06;;;;;;;3.42;3.13;;;19.10;61.30;;;;;;4983994;28;89941;-91
2023/04/03 03:18:33;;;;;;;3.90;3.45;;;19.00;61.30;;;;;;4984705;28;87116;-91
2023/04/03 03:21:01;;;;;;;3.50;3.20;;;19.00;61.20;;;;;;5001222;28;88986;-90
2023/04/03 03:23:28;;;;;;;3.92;3.50;;;19.10;61.30;;;;;;4981394;28;91306;-90
2023/04/03 03:26:02;;;;;;;4.32;3.50;;;19.00;61.30;;;;;;4992291;28;89996;-89
2023/04/03 03:28:28;;;;;;;3.85;3.20;;;19.10;61.20;;;;;;4998684;28;88564;-90
2023/04/03 03:30:54;;;;;;;4.20;3.80;;;19.00;61.20;;;;;;4983230;28;89588;-91
2023/04/03 03:40:05;;;;;;;5.20;3.35;;;19.00;61.30;;;;;;4984516;28;87136;-89
2023/04/03 03:42:31;;;;;;;4.20;3.80;;;19.00;61.20;;;;;;4983070;28;91023;-91
2023/04/03 03:44:59;;;;;;;4.10;3.45;;;19.00;61.40;;;;;;4984353;28;89930;-89
2023/04/03 03:47:25;;;;;;;3.28;2.97;;;19.00;61.20;;;;;;4998886;28;90014;-90
2023/04/03 03:49:51;;;;;;;3.88;3.30;;;19.00;61.00;;;;;;4990180;28;87236;-90
2023/04/03 03:52:16;;;;;;;3.83;3.13;;;19.00;60.80;;;;;;4983538;28;90126;-90
2023/04/03 03:54:42;;;;;;;3.47;3.17;;;19.00;60.80;;;;;;4982218;28;92363;-90
2023/04/03 03:57:08;;;;;;;3.92;3.25;;;19.00;60.90;;;;;;5000616;28;91408;-90
2023/04/03 03:59:34;;;;;;;4.03;3.63;;;19.00;60.70;;;;;;4984719;28;87270;-91
2023/04/03 04:02:00;;;;;;;3.55;3.08;;;19.00;60.90;;;;;;4998843;28;89215;-91
2023/04/03 04:04:25;;;;;;;3.85;3.10;;;19.00;61.00;;;;;;4979016;28;90673;-90
2023/04/03 04:06:51;;;;;;;3.53;3.22;;;19.00;61.10;;;;;;4999119;28;90110;-91
2023/04/03 04:09:32;;;;;;;2.92;2.63;;;19.00;61.10;;;;;;5000125;28;87520;-91
2023/04/03 04:11:58;;;;;;;3.78;3.40;;;19.00;61.10;;;;;;4999723;28;94593;-90
2023/04/03 04:14:23;;;;;;;3.40;3.10;;;19.00;60.90;;;;;;4982414;28;90274;-90
2023/04/03 04:16:49;;;;;;;3.35;3.05;;;18.90;61.10;;;;;;4999603;28;90718;-90
2023/04/03 04:19:15;;;;;;;3.33;3.03;;;18.90;60.70;;;;;;4999235;28;88384;-90
2023/04/03 04:21:53;;;;;;;3.97;3.17;;;18.90;60.70;;;;;;4982321;28;89575;-90
2023/04/03 04:24:18;;;;;;;4.70;3.10;;;18.80;60.80;;;;;;4983551;28;91746;-90
2023/04/03 04:26:44;;;;;;;3.40;3.10;;;18.80;60.80;;;;;;4982910;28;91205;-90
2023/04/03 04:29:10;;;;;;;3.45;3.15;;;18.90;60.70;;;;;;4982896;28;86988;-91
2023/04/03 04:31:36;;;;;;;3.67;3.20;;;18.90;60.70;;;;;;4999706;28;89077;-91
2023/04/03 04:34:01;;;;;;;2.97;2.78;;;18.90;60.60;;;;;;4984110;28;87358;-90
2023/04/03 04:36:27;;;;;;;3.20;2.90;;;18.80;60.40;;;;;;4983244;28;90862;-90
2023/04/03 04:38:53;;;;;;;3.60;3.30;;;18.90;60.60;;;;;;4983025;28;86876;-89
2023/04/03 04:41:22;;;;;;;3.05;2.75;;;18.90;60.40;;;;;;4998578;28;89970;-90
2023/04/03 04:43:51;;;;;;;3.42;2.88;;;18.90;60.30;;;;;;4982230;28;88503;-90
2023/04/03 04:46:18;;;;;;;3.45;2.63;;;18.90;60.20;;;;;;4981909;28;89294;-90
2023/04/03 04:49:02;;;;;;;4.10;3.28;;;18.80;60.40;;;;;;4980402;28;87032;-90
2023/04/03 04:51:33;;;;;;;3.33;3.03;;;18.80;60.50;;;;;;4904744;28;88186;-90
2023/04/03 04:53:58;;;;;;;3.60;3.25;;;18.80;60.30;;;;;;4896594;28;90651;-89
2023/04/03 04:56:25;;;;;;;3.08;2.80;;;18.80;60.50;;;;;;4911208;28;91312;-91
2023/04/03 04:58:50;;;;;;;2.97;2.53;;;18.80;60.40;;;;;;4902452;28;87560;-90
2023/04/03 05:01:16;;;;;;;2.65;2.45;;;18.80;60.30;;;;;;4923794;28;90318;-90
2023/04/03 05:03:42;;;;;;;3.38;3.08;;;18.80;60.40;;;;;;4924458;28;88396;-91
2023/04/03 05:06:07;;;;;;;3.10;2.80;;;18.80;60.50;;;;;;4933276;28;91241;-90
2023/04/03 05:08:33;;;;;;;3.72;2.85;;;18.80;60.40;;;;;;4931825;28;87813;-90
2023/04/03 05:10:59;;;;;;;3.08;2.70;;;18.80;60.40;;;;;;4930506;28;88701;-91
2023/04/03 05:13:24;;;;;;;3.17;2.83;;;18.80;60.20;;;;;;4914583;28;91679;-90
2023/04/03 05:15:50;;;;;;;3.35;3.05;;;18.80;60.20;;;;;;4931785;28;90019;-90
2023/04/03 05:18:16;;;;;;;3.22;2.70;;;18.70;60.30;;;;;;4917083;28;87126;-92
2023/04/03 05:20:43;;;;;;;2.53;2.33;;;18.70;60.40;;;;;;4933777;28;90238;-92
2023/04/03 05:23:10;;;;;;;3.97;2.88;;;18.70;60.20;;;;;;4915659;28;91471;-92
2023/04/03 05:25:38;;;;;;;3.35;2.92;;;18.70;60.10;;;;;;4931949;28;91461;-92
2023/04/03 05:28:04;;;;;;;3.15;2.85;;;18.70;60.10;;;;;;4921415;28;87161;-91
2023/04/03 05:30:29;;;;;;;3.58;2.78;;;18.70;60.20;;;;;;4988929;28;90382;-92
2023/04/03 05:33:15;;;;;;;3.10;2.30;;;18.70;60.10;;;;;;4980647;28;91673;-91
2023/04/03 05:35:43;;;;;;;3.05;2.75;;;18.70;60.20;;;;;;4980399;28;91290;-92
2023/04/03 05:38:09;;;;;;;3.30;2.92;;;18.70;60.10;;;;;;4997620;28;87035;-91
2023/04/03 05:40:35;;;;;;;3.20;2.63;;;18.70;60.10;;;;;;4959223;28;90992;-91
2023/04/03 05:43:00;;;;;;;2.97;2.65;;;18.70;60.20;;;;;;4947179;28;91634;-91
2023/04/03 05:45:26;;;;;;;3.03;2.53;;;18.70;60.00;;;;;;4964049;28;89364;-90
2023/04/03 05:47:52;;;;;;;2.95;2.67;;;18.70;60.20;;;;;;4956664;28;87455;-91
2023/04/03 05:50:17;;;;;;;2.55;2.25;;;18.70;60.20;;;;;;4963543;28;86453;-91
2023/04/03 05:52:47;;;;;;;2.90;2.67;;;18.70;60.20;;;;;;4980074;28;90420;-89
2023/04/03 05:55:13;;;;;;;3.42;3.03;;;18.70;60.20;;;;;;4918528;28;90080;-91
2023/04/03 05:57:38;;;;;;;2.80;2.45;;;18.70;60.10;;;;;;4905945;28;87972;-92
2023/04/03 06:00:06;;;;;;;3.13;2.85;;;18.70;60.20;;;;;;4912368;28;89200;-92
2023/04/03 06:02:31;;;;;;;2.72;2.45;;;18.70;60.10;;;;;;4873283;28;92427;-90
2023/04/03 06:04:57;;;;;;;2.78;2.55;;;18.80;60.10;;;;;;4856438;28;88747;-91
2023/04/03 06:07:33;;;;;;;2.70;2.50;;;18.80;60.00;;;;;;4858958;28;86913;-89
2023/04/03 06:09:59;;;;;;;2.35;2.15;;;18.80;59.90;;;;;;4857541;28;88536;-92
2023/04/03 06:12:25;;;;;;;3.17;2.78;;;18.80;60.00;;;;;;4864977;28;90510;-91
2023/04/03 06:14:52;;;;;;;2.50;2.30;;;18.90;59.90;;;;;;4866140;28;95335;-91
2023/04/03 06:17:18;;;;;;;4.55;2.70;;;19.00;59.80;;;;;;4872158;28;87705;-91
2023/04/03 06:19:44;;;;;;;5.93;3.03;;;19.00;59.90;;;;;;4872946;28;89122;-91
2023/04/03 06:22:11;;;;;;;3.33;2.70;;;19.10;58.00;;;;;;4872702;28;90009;-93
2023/04/03 06:24:37;;;;;;;6.22;2.78;;;19.20;59.10;;;;;;4872437;28;90727;-90
2023/04/03 06:27:03;;;;;;;3.10;2.40;;;19.20;59.10;;;;;;4929841;28;86926;-89
2023/04/03 06:29:29;;;;;;;4.20;2.53;;;19.30;59.20;;;;;;4939350;28;89626;-91
2023/04/03 06:31:57;;;;;;;3.17;2.88;;;19.50;59.60;;;;;;4944654;28;91267;-89
2023/04/03 06:34:23;;;;;;;2.90;2.58;;;19.70;58.90;;;;;;4941531;28;90319;-89
2023/04/03 06:36:50;;;;;;;4.40;2.47;;;19.80;58.70;;;;;;4959273;28;87287;-90
2023/04/03 06:39:18;;;;;;;5.07;2.95;;;20.00;58.70;;;;;;4950722;28;88277;-88
2023/04/03 06:41:44;;;;;;;4.30;3.08;;;20.10;58.70;;;;;;4982027;28;88881;-89
2023/04/03 06:44:11;;;;;;;3.15;2.67;;;20.20;58.80;;;;;;4998100;28;91510;-92
2023/04/03 06:46:47;;;;;;;3.78;2.95;;;20.30;58.60;;;;;;4988041;28;88319;-92
2023/04/03 06:49:13;;;;;;;4.30;3.47;;;20.40;58.90;;;;;;4981794;28;88707;-89
2023/04/03 06:51:38;;;;;;;7.88;3.55;;;20.40;57.80;;;;;;4987397;28;89986;-91
2023/04/03 06:54:05;;;;;;;3.78;3.35;;;20.40;58.00;;;;;;4975795;28;89993;-91
2023/04/03 06:56:32;;;;;;;8.65;3.67;;;20.50;58.40;;;;;;4999580;28;86782;-91
2023/04/03 06:58:58;;;;;;;6.50;3.90;;;20.50;59.10;;;;;;4990313;28;89519;-91
2023/04/03 07:01:27;;;;;;;4.45;3.55;;;20.50;59.30;;;;;;4981157;28;90184;-93
2023/04/03 07:03:53;;;;;;;6.05;4.00;;;20.40;59.30;;;;;;4981045;28;90180;-91
2023/04/03 07:06:19;;;;;;;5.68;4.20;;;20.40;59.50;;;;;;4985267;28;87338;-92
2023/04/03 07:08:46;;;;;;;8.18;4.32;;;20.50;59.00;;;;;;5000346;28;89446;-92
2023/04/03 07:11:12;;;;;;;5.57;3.60;;;20.50;59.30;;;;;;4999843;28;91318;-93
2023/04/03 07:13:38;;;;;;;4.65;3.75;;;20.50;59.50;;;;;;5000810;28;92520;-92
2023/04/03 07:16:05;;;;;;;9.35;3.85;;;20.60;59.30;;;;;;4984960;28;87461;-89
2023/04/03 07:18:31;;;;;;;5.30;4.07;;;20.60;58.90;;;;;;4997460;28;89938;-91
2023/04/03 07:20:59;;;;;;;5.10;3.65;;;20.60;59.10;;;;;;4982767;28;90955;-91
2023/04/03 07:23:45;;;;;;;7.00;3.83;;;20.60;59.40;;;;;;4965931;28;87772;-89
2023/04/03 07:26:11;;;;;;;6.40;3.80;;;20.50;59.40;;;;;;4984790;28;86865;-92
2023/04/03 07:28:38;;;;;;;10.05;3.67;;;20.50;59.10;;;;;;4999166;28;88882;-93
2023/04/03 07:31:07;;;;;;;9.05;4.20;;;20.50;57.40;;;;;;4916874;28;90206;-90
2023/04/03 07:33:34;;;;;;;11.52;3.83;;;20.40;57.00;;;;;;4976560;28;91265;-89
2023/04/03 07:36:01;;;;;;;10.02;4.35;;;20.40;57.50;;;;;;4984568;28;87819;-90
2023/04/03 07:38:27;;;;;;;6.65;3.67;;;20.30;57.10;;;;;;4984737;28;87279;-91
2023/04/03 07:40:53;;;;;;;8.88;3.58;;;20.30;58.10;;;;;;4986312;28;91346;-94
2023/04/03 07:43:20;;;;;;;10.95;3.70;;;20.30;58.40;;;;;;4999120;28;91665;-89
2023/04/03 07:45:46;;;;;;;36.67;8.90;;;20.50;58.10;;;;;;4986381;28;87558;-92
2023/04/03 07:48:13;;;;;;;30.27;7.80;;;20.50;58.10;;;;;;5000929;28;89688;-93
2023/04/03 07:50:42;;;;;;;30.55;6.93;;;20.40;57.60;;;;;;4964652;28;90401;-91
2023/04/03 07:53:26;;;;;;;27.17;8.65;;;20.30;58.10;;;;;;5000780;28;89707;-93
2023/04/03 07:55:55;;;;;;;31.88;9.73;;;20.30;58.10;;;;;;4952363;28;87099;-94
2023/04/03 07:58:21;;;;;;;30.60;8.82;;;20.40;58.20;;;;;;4957749;28;90601;-88
2023/04/03 08:00:47;;;;;;;27.20;8.45;;;20.40;58.40;;;;;;4924992;28;92555;-90
2023/04/03 08:03:25;;;;;;;25.80;8.32;;;20.50;58.50;;;;;;4941819;28;92054;-91
2023/04/03 08:05:51;;;;;;;25.77;8.63;;;20.50;58.30;;;;;;4933805;28;87806;-90
2023/04/03 08:08:21;;;;;;;38.65;8.45;;;20.50;58.10;;;;;;4934775;28;89726;-90
2023/04/03 08:10:52;;;;;;;23.63;7.60;;;20.50;58.50;;;;;;4940176;28;90326;-94
2023/04/03 08:15:53;;;;;;;27.30;9.32;;;20.50;58.60;;;;;;4985049;22;87150;-92
2023/04/03 08:18:21;;;;;;;34.20;9.98;;;20.50;59.00;;;;;;4931816;28;89695;-93
2023/04/03 08:20:47;;;;;;;32.80;10.48;;;20.40;59.30;;;;;;4900542;28;90702;-93
2023/04/03 08:23:15;;;;;;;25.63;9.65;;;20.40;59.70;;;;;;4926779;28;91126;-93
2023/04/03 08:25:41;;;;;;;28.40;10.93;;;20.40;60.30;;;;;;4917566;28;88558;-91
2023/04/03 08:28:18;;;;;;;25.00;10.07;;;20.40;61.00;;;;;;4919807;28;89690;-92
2023/04/03 08:30:45;;;;;;;32.42;11.93;;;20.40;61.60;;;;;;4934265;28;89243;-92
2023/04/03 08:38:36;;;;;;;31.55;11.60;;;20.30;63.30;;;;;;4957429;28;87255;-87
2023/04/03 08:41:21;;;;;;;31.75;11.48;;;20.20;63.70;;;;;;4959296;28;88321;-87
2023/04/03 08:44:15;;;;;;;31.15;11.25;;;20.20;63.50;;;;;;4945779;28;89531;-87
2023/04/03 08:47:11;;;;;;;30.77;11.07;;;20.20;63.50;;;;;;4947283;28;87247;-86
2023/04/03 08:50:05;;;;;;;30.48;12.43;;;20.30;63.80;;;;;;4938565;28;89246;-90
2023/04/03 08:52:36;;;;;;;42.67;12.88;;;20.30;64.70;;;;;;4878347;28;92725;-87
2023/04/03 08:55:07;;;;;;;29.98;11.65;;;20.30;64.10;;;;;;4896848;28;91699;-88
2023/04/03 08:57:38;;;;;;;35.45;13.27;;;20.30;64.30;;;;;;4897470;28;87003;-87
2023/04/03 09:00:20;;;;;;;36.22;13.13;;;20.30;64.80;;;;;;4895109;28;87890;-87
2023/04/03 09:02:51;;;;;;;29.35;11.80;;;20.40;64.70;;;;;;4899101;28;89310;-91
2023/04/03 09:05:40;;;;;;;36.22;13.15;;;20.30;64.50;;;;;;4900371;28;90695;-90
2023/04/03 09:08:21;;;;;;;33.30;12.95;;;20.30;64.70;;;;;;4882578;28;87590;-90
2023/04/03 09:10:47;;;;;;;35.35;12.48;;;20.30;64.10;;;;;;4879497;28;90506;-87
2023/04/03 09:13:39;;;;;;;32.33;12.18;;;20.30;63.80;;;;;;4882709;28;91391;-91
2023/04/03 09:16:23;;;;;;;30.02;12.18;;;20.40;63.40;;;;;;4901719;28;87875;-90
2023/04/03 09:19:15;;;;;;;26.92;11.18;;;20.40;63.10;;;;;;4897302;28;88696;-89
2023/04/03 09:21:42;;;;;;;30.20;11.38;;;20.40;63.10;;;;;;4883948;28;90202;-90
2023/04/03 09:24:11;;;;;;;22.27;10.50;;;20.40;62.70;;;;;;4887354;28;90803;-91
2023/04/03 09:27:07;;;;;;;29.10;10.82;;;20.40;62.20;;;;;;4901407;28;90090;-92
2023/04/03 09:29:39;;;;;;;25.70;10.30;;;20.40;61.80;;;;;;4916055;28;87728;-91
2023/04/03 09:32:25;;;;;;;21.63;10.27;;;20.40;61.50;;;;;;4916107;28;89080;-91
2023/04/03 09:34:52;;;;;;;27.65;11.05;;;20.40;61.40;;;;;;4949283;28;90474;-91
2023/04/03 09:37:46;;;;;;;22.13;10.73;;;20.40;61.60;;;;;;4917874;28;91926;-93
2023/04/03 09:40:33;;;;;;;25.25;10.25;;;20.40;61.30;;;;;;4949808;28;87428;-91
2023/04/03 09:43:02;;;;;;;23.48;8.90;;;20.40;61.30;;;;;;4916249;28;89144;-91
2023/04/03 09:45:32;;;;;;;23.08;10.88;;;20.40;61.10;;;;;;4919495;28;92187;-91
2023/04/03 09:48:07;;;;;;;22.33;9.55;;;20.40;61.10;;;;;;4924058;28;91966;-90
2023/04/03 09:50:34;;;;;;;21.38;10.25;;;20.40;61.00;;;;;;4919040;28;87546;-91
2023/04/03 09:53:24;;;;;;;40.35;10.80;;;20.40;61.20;;;;;;4919604;28;90492;-91
2023/04/03 09:55:50;;;;;;;22.27;9.25;;;20.40;61.10;;;;;;4920126;28;90666;-89
2023/04/03 09:58:28;;;;;;;18.00;9.27;;;20.30;61.20;;;;;;4928320;28;88380;-89
2023/04/03 10:00:59;;;;;;;21.52;8.50;;;20.40;61.00;;;;;;4919411;28;87354;-90
2023/04/03 10:03:29;;;;;;;20.38;9.70;;;20.40;61.10;;;;;;4913043;28;90176;-91
2023/04/03 10:05:57;;;;;;;27.67;9.00;;;20.40;60.70;;;;;;4925196;28;91145;-94
2023/04/03 10:08:29;;;;;;;20.25;8.73;;;20.40;60.40;;;;;;4941768;28;90263;-91
2023/04/03 10:11:16;;;;;;;23.90;7.93;;;20.40;60.30;;;;;;4950512;28;88549;-93
2023/04/03 10:14:00;;;;;;;20.30;7.90;;;20.40;59.90;;;;;;4960671;28;90013;-93
2023/04/03 10:16:52;;;;;;;22.92;8.77;;;20.40;60.30;;;;;;4939651;28;94318;-94
2023/04/03 10:19:45;;;;;;;20.50;8.60;;;20.40;60.00;;;;;;4978532;28;94246;-94
2023/04/03 10:22:48;;;;;;;17.80;7.60;;;20.30;60.20;;;;;;4946815;28;87309;-95
2023/04/03 10:25:23;;;;;;;16.38;8.00;;;20.30;60.40;;;;;;4945089;28;89636;-96
2023/04/03 10:28:37;;;;;;;19.33;8.30;;;20.40;60.60;;;;;;4974460;28;90651;-93
2023/04/03 10:31:21;;;;;;;16.95;7.68;;;20.30;60.50;;;;;;4951663;28;89840;-88
2023/04/03 10:34:05;;;;;;;18.98;8.55;;;20.30;60.60;;;;;;4958613;28;86836;-91
2023/04/03 10:37:01;;;;;;;19.13;7.40;;;20.30;60.60;;;;;;4959508;28;88279;-89
2023/04/03 10:39:56;;;;;;;17.27;7.78;;;20.40;60.80;;;;;;4941290;28;93136;-89
2023/04/03 10:42:56;;;;;;;20.98;7.38;;;20.30;61.30;;;;;;4940134;28;92759;-92
2023/04/03 10:45:25;;;;;;;;;;;20.30;60.40;;;;;;4952964;28;87403;-89
2023/04/03 10:48:05;;;;;;;17.63;7.10;;;20.40;60.00;;;;;;4946538;28;88667;-90
2023/04/03 10:51:06;;;;;;;18.33;7.75;;;20.40;60.30;;;;;;4938589;28;90064;-90
2023/04/03 10:53:44;;;;;;;15.45;5.93;;;20.30;60.40;;;;;;4961886;28;90369;-90
2023/04/03 10:56:37;;;;;;;12.25;6.72;;;20.30;60.30;;;;;;4931737;28;87379;-89
2023/04/03 10:59:03;;;;;;;12.93;6.07;;;20.20;60.00;;;;;;4957689;28;89269;-89
2023/04/03 11:01:36;;;;;;;14.32;6.70;;;20.10;60.10;;;;;;4973444;28;91318;-88
2023/04/03 11:04:05;;;;;;;14.80;6.65;;;20.10;60.20;;;;;;4957107;28;91578;-88
2023/04/03 11:06:57;;;;;;;13.98;6.43;;;20.10;60.00;;;;;;4958996;28;88196;-87
2023/04/03 11:09:37;;;;;;;12.77;6.43;;;20.10;60.10;;;;;;4958261;28;87341;-88
2023/04/03 11:12:09;;;;;;;11.75;5.85;;;20.10;59.60;;;;;;4956916;28;91554;-87
2023/04/03 11:14:37;;;;;;;12.75;5.53;;;20.10;59.60;;;;;;4958918;28;88223;-88
2023/04/03 11:17:18;;;;;;;12.50;6.22;;;20.10;60.00;;;;;;4957760;28;86850;-88
2023/04/03 11:19:57;;;;;;;16.17;5.75;;;20.10;59.90;;;;;;4956848;28;90914;-88
2023/04/03 11:22:28;;;;;;;15.40;5.25;;;20.10;59.30;;;;;;4956406;28;93671;-87
2023/04/03 11:25:02;;;;;;;13.45;5.85;;;20.20;59.10;;;;;;4959571;28;89242;-86
2023/04/03 11:27:39;;;;;;;15.07;6.13;;;20.10;59.00;;;;;;4960219;28;86956;-88
2023/04/03 11:30:11;;;;;;;13.38;5.95;;;20.20;58.90;;;;;;4960522;28;86985;-88
2023/04/03 11:32:58;;;;;;;15.13;6.10;;;20.10;58.80;;;;;;4958610;28;92320;-88
2023/04/03 11:46:55;;;;;;;12.75;5.15;;;20.00;59.10;;;;;;4979760;28;90496;-87
2023/04/03 11:49:55;;;;;;;13.68;5.57;;;20.00;58.80;;;;;;4982111;28;88121;-87
2023/04/03 11:52:39;;;;;;;11.95;4.70;;;20.00;58.70;;;;;;4981356;28;87269;-87
2023/04/03 11:55:23;;;;;;;10.80;5.55;;;20.00;58.70;;;;;;4982052;28;87446;-88
2023/04/03 11:57:57;;;;;;;8.88;5.00;;;19.90;58.70;;;;;;4980183;28;88316;-88
2023/04/03 12:00:51;;;;;;;11.43;5.25;;;20.00;58.70;;;;;;4980121;28;88620;-87
2023/04/03 12:03:23;;;;;;;12.10;5.03;;;20.00;58.70;;;;;;4960599;28;88383;-88
2023/04/03 12:05:52;;;;;;;10.02;4.85;;;20.00;58.60;;;;;;4970757;28;91477;-87
2023/04/03 12:08:33;;;;;;;13.00;5.57;;;19.90;58.60;;;;;;4979553;28;88543;-88
2023/04/03 12:11:14;;;;;;;12.55;5.30;;;20.00;58.60;;;;;;4980954;28;88564;-88
2023/04/03 12:13:39;;;;;;;10.02;4.55;;;20.00;58.50;;;;;;4981999;28;87222;-89
2023/04/03 12:16:21;;;;;;;9.90;4.53;;;19.90;58.80;;;;;;4981214;28;87276;-88
2023/04/03 12:18:53;;;;;;;8.77;4.65;;;19.90;58.80;;;;;;4980723;28;88486;-88
2023/04/03 12:21:21;;;;;;;9.63;4.63;;;19.90;58.90;;;;;;4980170;28;88070;-88
2023/04/03 12:24:02;;;;;;;11.18;5.28;;;19.90;58.80;;;;;;4954406;28;86879;-89
2023/04/03 12:27:03;;;;;;;12.02;4.57;;;19.90;58.60;;;;;;4980470;28;86946;-87
2023/04/03 12:29:38;;;;;;;10.25;4.57;;;19.90;58.70;;;;;;4899395;28;89524;-88
2023/04/03 12:32:07;;;;;;;9.02;4.50;;;19.90;58.60;;;;;;4899877;28;89222;-87
2023/04/03 12:35:09;;;;;;;11.05;3.97;;;19.90;58.60;;;;;;4901132;28;87378;-89
2023/04/03 12:44:50;;;;;;;9.43;4.32;;;19.80;58.70;;;;;;4898697;28;87782;-89
2023/04/03 12:47:32;;;;;;;6.78;3.70;;;19.80;58.60;;;;;;4899598;28;87785;-87
2023/04/03 12:50:00;;;;;;;7.60;3.83;;;19.80;58.60;;;;;;4899365;28;86726;-88
2023/04/03 12:56:26;;;;;;;9.25;4.53;;;19.80;58.60;;;;;;4899868;28;91358;-87
2023/04/03 12:58:55;;;;;;;8.15;3.92;;;19.90;57.90;;;;;;4899592;28;87962;-89
2023/04/03 13:01:25;;;;;;;10.52;4.18;;;19.90;58.10;;;;;;4900692;28;87565;-88
2023/04/03 13:03:58;;;;;;;9.27;4.13;;;19.90;57.50;;;;;;4899939;28;89151;-87
2023/04/03 13:06:39;;;;;;;8.10;3.47;;;19.90;57.70;;;;;;4898583;28;88717;-88
2023/04/03 13:09:17;;;;;;;10.30;4.40;;;19.80;57.80;;;;;;4900207;28;95497;-87
2023/04/03 13:11:44;;;;;;;8.25;4.07;;;19.80;57.50;;;;;;4898708;28;89800;-91
2023/04/03 13:14:25;;;;;;;7.95;3.97;;;19.70;57.30;;;;;;4899333;28;90175;-88
2023/04/03 13:17:02;;;;;;;9.25;4.15;;;19.80;57.40;;;;;;4899332;28;88515;-85
2023/04/03 13:19:41;;;;;;;12.10;4.00;;;19.80;57.40;;;;;;4899410;28;87518;-88
2023/04/03 13:22:30;;;;;;;6.63;3.60;;;19.80;56.80;;;;;;4899043;28;87529;-86
2023/04/03 13:24:59;;;;;;;9.93;3.58;;;19.90;56.90;;;;;;4890648;28;89495;-86
2023/04/03 13:27:26;;;;;;;9.20;3.75;;;19.80;57.00;;;;;;4883104;28;89991;-85
2023/04/03 13:29:54;;;;;;;6.75;3.75;;;19.80;57.10;;;;;;4860065;28;87533;-85
2023/04/03 13:32:23;;;;;;;9.73;3.83;;;19.80;57.10;;;;;;4860576;29;87928;-86
2023/04/03 13:34:49;;;;;;;7.72;3.60;;;19.90;56.50;;;;;;4862419;29;88549;-88
2023/04/03 13:37:21;;;;;;;6.57;3.00;;;19.80;56.90;;;;;;4861083;29;89269;-89
2023/04/03 13:40:03;;;;;;;8.82;3.50;;;19.80;56.80;;;;;;4860412;29;87849;-88
2023/04/03 13:42:31;;;;;;;10.13;4.07;;;20.00;55.60;;;;;;4861057;28;87617;-88
2023/04/03 13:45:11;;;;;;;12.57;4.35;;;20.00;55.40;;;;;;4860664;29;88579;-89
2023/04/03 13:47:38;;;;;;;;;;;20.00;54.80;;;;;;4878639;28;88781;-86
2023/04/03 13:52:35;;;;;;;14.48;5.10;;;19.90;55.00;;;;;;4864697;28;89637;-89
2023/04/03 13:55:32;;;;;;;15.65;4.93;;;19.90;54.60;;;;;;4854794;28;91222;-88